aviador You're here:

PABT Decoded Metar

BETTLES in AK, USA
Report Time2017-12-15 18:53:00
UTC Time2017-12-15 19:31:32
Flight Rules vfr VFR
Wind020° at 08 kt
W.Decomp.*RWY 01: 7.9 kt HW 1.4 kt LCW
W.Rank020° ranks 2
Current wind is above 020° avg. (5.4)
Visibility9999 m
Phenomena:N/A
Clouds:Few 070 Hf
Broken 110 Hf
Expected CloudBase > 800 ft AGL from Temp-Dew spread
Ceiling11,000 ft
Temp-5°C (ISA -19)
Dew Point-7°C (86% RH)
AAT-10.7°C
QNH1000 hPa
Density Alt-1,171 ft
Elevation640 ft
Report Wrong Elevation
Raw Report
PABT 151853Z 02008KT 7SM FEW070 BKN110 M05/M07 A2954 RMK AO2
SLP019 T10501072=

Extra information for PABT:More info

Metar Taf Metar & Taf Last 4 Metars F.Rules Stats Wind Profile Meteogram Temp Stats Airport Information Weather charts Add Link Nearby VenuesMetar ALERT Operation Metar Decoded Social comments

AIRNAV info for PABT